createdAt,value
2023-01-10T00:01:10.980Z,3.70
2023-01-10T00:06:13.507Z,3.60
2023-01-10T00:11:34.873Z,3.60
2023-01-10T00:16:39.382Z,3.40
2023-01-10T00:21:41.953Z,3.40
2023-01-10T00:26:51.180Z,3.40
2023-01-10T00:31:53.957Z,3.20
2023-01-10T00:36:56.619Z,3.00
2023-01-10T00:42:22.108Z,2.80
2023-01-10T00:47:24.665Z,2.90
2023-01-10T00:52:27.335Z,2.90
2023-01-10T00:57:30.032Z,3.00
2023-01-10T01:02:32.691Z,3.10
2023-01-10T01:07:35.548Z,3.10
2023-01-10T01:12:38.150Z,3.10
2023-01-10T01:17:40.745Z,3.20
2023-01-10T01:22:43.451Z,3.30
2023-01-10T01:27:45.981Z,3.20
2023-01-10T01:32:48.719Z,3.20
2023-01-10T01:37:52.071Z,3.20
2023-01-10T01:42:57.495Z,3.20
2023-01-10T01:48:13.508Z,3.30
2023-01-10T01:53:32.579Z,3.30
2023-01-10T01:59:07.822Z,3.20
2023-01-10T02:04:29.003Z,3.20
2023-01-10T02:09:55.939Z,3.10
2023-01-10T02:14:59.846Z,2.80
2023-01-10T02:20:12.834Z,2.60
2023-01-10T02:25:52.359Z,2.50
2023-01-10T02:31:00.520Z,2.50
2023-01-10T02:36:21.228Z,2.70
2023-01-10T02:41:46.962Z,2.70
2023-01-10T02:46:49.995Z,2.60
2023-01-10T02:51:52.783Z,2.60
2023-01-10T02:57:13.017Z,2.50
2023-01-10T03:02:33.412Z,2.30
2023-01-10T03:07:53.131Z,2.30
2023-01-10T03:13:02.192Z,2.30
2023-01-10T03:18:10.905Z,2.30
2023-01-10T03:23:14.926Z,2.40
2023-01-10T03:28:30.604Z,2.50
2023-01-10T03:33:34.403Z,2.50
2023-01-10T03:39:09.504Z,2.50
2023-01-10T03:44:38.969Z,2.40
2023-01-10T03:49:44.190Z,2.40
2023-01-10T03:54:48.037Z,2.30
2023-01-10T03:59:58.066Z,2.30
2023-01-10T04:05:00.676Z,2.30
2023-01-10T04:10:05.238Z,2.30
2023-01-10T04:15:08.097Z,2.10
2023-01-10T04:20:11.491Z,2.20
2023-01-10T04:25:14.118Z,4.30
2023-01-10T04:30:17.768Z,2.30
2023-01-10T04:35:20.421Z,2.30
2023-01-10T04:40:23.596Z,2.30
2023-01-10T04:45:26.217Z,2.30
2023-01-10T04:50:28.943Z,2.30
2023-01-10T04:55:33.246Z,2.30
2023-01-10T05:00:35.949Z,2.30
2023-01-10T05:05:38.479Z,2.30
2023-01-10T05:10:41.068Z,0.00
2023-01-10T05:15:43.595Z,2.40
2023-01-10T05:20:46.063Z,2.50
2023-01-10T05:25:48.633Z,2.50
2023-01-10T05:30:51.252Z,2.50
2023-01-10T05:35:53.853Z,2.50
2023-01-10T05:40:59.008Z,2.60
2023-01-10T05:46:02.055Z,2.60
2023-01-10T05:51:04.869Z,2.70
2023-01-10T05:56:07.866Z,2.70
2023-01-10T06:01:10.867Z,2.80
2023-01-10T06:06:13.383Z,2.80
2023-01-10T06:11:16.008Z,2.70
2023-01-10T06:16:18.516Z,2.80
2023-01-10T06:21:21.512Z,3.00
2023-01-10T06:26:24.111Z,3.00
2023-01-10T06:31:27.587Z,3.10
2023-01-10T06:36:30.307Z,3.20
2023-01-10T06:41:33.028Z,3.20
2023-01-10T06:46:35.737Z,3.20
2023-01-10T06:51:38.326Z,3.30
2023-01-10T06:56:40.967Z,3.30
2023-01-10T07:01:43.627Z,3.30
2023-01-10T07:06:46.340Z,3.30
2023-01-10T07:11:48.858Z,3.40
2023-01-10T07:16:51.563Z,3.50
2023-01-10T07:21:54.048Z,3.50
2023-01-10T07:26:56.651Z,3.40
2023-01-10T07:31:59.113Z,3.30
2023-01-10T07:37:02.339Z,3.40
2023-01-10T07:42:05.014Z,3.40
2023-01-10T07:47:07.784Z,3.60
2023-01-10T07:52:10.373Z,3.70
2023-01-10T07:57:12.862Z,3.70
2023-01-10T08:02:15.558Z,3.80
2023-01-10T08:07:18.881Z,3.90
2023-01-10T08:12:22.061Z,3.80
2023-01-10T08:17:24.973Z,3.90
2023-01-10T08:22:27.579Z,3.90
2023-01-10T08:27:30.266Z,4.00
2023-01-10T08:32:32.918Z,4.00
2023-01-10T08:37:35.596Z,4.10
2023-01-10T08:42:38.158Z,4.10
2023-01-10T08:47:40.687Z,4.20
2023-01-10T08:52:43.130Z,4.20
2023-01-10T08:57:46.078Z,4.20
2023-01-10T09:02:48.707Z,4.40
2023-01-10T09:07:52.021Z,4.50
2023-01-10T09:12:54.766Z,4.60
2023-01-10T09:17:59.759Z,4.70
2023-01-10T09:23:08.450Z,4.80
2023-01-10T09:28:11.410Z,4.90
2023-01-10T09:33:14.695Z,4.80
2023-01-10T09:38:22.408Z,4.90
2023-01-10T09:43:44.026Z,4.90
2023-01-10T09:49:07.024Z,5.00
2023-01-10T09:54:25.460Z,5.10
2023-01-10T09:59:39.989Z,5.10
2023-01-10T10:04:43.094Z,5.20
2023-01-10T10:09:45.599Z,5.30
2023-01-10T10:15:31.774Z,5.50
2023-01-10T10:21:07.611Z,5.60
2023-01-10T10:26:28.953Z,5.70
2023-01-10T10:31:48.177Z,4.30
2023-01-10T10:37:15.545Z,5.80
2023-01-10T10:42:20.055Z,5.70
2023-01-10T10:47:27.735Z,5.80
2023-01-10T10:52:34.754Z,5.70
2023-01-10T10:57:43.438Z,5.80
2023-01-10T11:03:01.571Z,5.80
2023-01-10T11:08:13.434Z,5.70
2023-01-10T11:13:34.528Z,5.60
2023-01-10T11:24:59.887Z,5.70
2023-01-10T11:30:06.993Z,5.60
2023-01-10T11:35:20.705Z,5.80
2023-01-10T11:40:26.637Z,5.80
2023-01-10T11:45:34.019Z,5.60
2023-01-10T11:50:41.558Z,5.70
2023-01-10T11:55:48.519Z,5.80
2023-01-10T12:00:51.295Z,5.90
2023-01-10T12:06:03.645Z,5.70
2023-01-10T12:11:18.113Z,5.80
2023-01-10T12:16:33.205Z,5.70
2023-01-10T12:21:44.239Z,5.70
2023-01-10T12:26:47.591Z,5.60
2023-01-10T12:31:52.076Z,5.60
2023-01-10T12:37:35.003Z,5.80
2023-01-10T12:43:48.482Z,5.80
2023-01-10T12:48:51.254Z,5.80
2023-01-10T12:53:58.964Z,5.70
2023-01-10T12:59:07.683Z,5.70
2023-01-10T13:04:14.002Z,5.60
2023-01-10T13:09:25.750Z,5.60
2023-01-10T13:14:57.894Z,5.70
2023-01-10T13:20:23.269Z,5.70
2023-01-10T13:25:36.010Z,5.70
2023-01-10T13:30:42.789Z,5.50
2023-01-10T13:35:45.662Z,5.60
2023-01-10T13:41:00.378Z,5.50
2023-01-10T13:46:15.357Z,5.60
2023-01-10T13:51:20.412Z,5.50
2023-01-10T13:56:32.305Z,5.50
2023-01-10T14:01:58.313Z,5.50
2023-01-10T14:07:21.563Z,5.40
2023-01-10T14:12:29.816Z,5.40
2023-01-10T14:17:35.731Z,5.40
2023-01-10T14:22:40.513Z,5.30
2023-01-10T14:27:50.745Z,5.30
2023-01-10T14:32:57.854Z,5.30
2023-01-10T14:38:05.217Z,5.30
2023-01-10T14:43:16.162Z,5.40
2023-01-10T14:48:29.353Z,5.30
2023-01-10T14:53:31.894Z,5.40
2023-01-10T14:58:34.324Z,5.40
2023-01-10T15:03:44.916Z,5.40
2023-01-10T15:08:56.892Z,5.40
2023-01-10T15:14:08.311Z,5.40
2023-01-10T15:19:15.675Z,5.40
2023-01-10T15:24:35.888Z,5.40
2023-01-10T15:29:44.835Z,5.40
2023-01-10T15:34:50.896Z,5.40
2023-01-10T15:39:54.532Z,5.40
2023-01-10T15:44:58.255Z,5.40
2023-01-10T15:50:01.003Z,5.40
2023-01-10T15:55:40.313Z,5.30
2023-01-10T16:00:51.239Z,5.20
2023-01-10T16:05:59.340Z,5.30
2023-01-10T16:11:05.036Z,5.30
2023-01-10T16:16:17.332Z,5.20
2023-01-10T16:21:21.904Z,5.20
2023-01-10T16:26:24.526Z,5.10
2023-01-10T16:31:27.557Z,5.10
2023-01-10T16:36:30.705Z,5.10
2023-01-10T16:41:52.301Z,5.20
2023-01-10T16:46:54.811Z,5.20
2023-01-10T16:51:57.970Z,5.20
2023-01-10T16:57:00.474Z,5.20
2023-01-10T17:02:03.646Z,5.30
2023-01-10T17:07:06.627Z,5.20
2023-01-10T17:12:18.001Z,5.30
2023-01-10T17:17:20.856Z,5.20
2023-01-10T17:22:23.349Z,5.00
2023-01-10T17:27:25.857Z,4.90
2023-01-10T17:32:28.424Z,4.90
2023-01-10T17:37:30.977Z,4.90
2023-01-10T17:42:33.501Z,5.00
2023-01-10T17:47:36.054Z,5.00
2023-01-10T17:52:38.579Z,5.10
2023-01-10T17:57:41.159Z,5.10
2023-01-10T18:02:43.605Z,5.10
2023-01-10T18:07:46.763Z,6.90
2023-01-10T18:12:49.234Z,5.10
2023-01-10T18:17:52.415Z,5.00
2023-01-10T18:23:13.640Z,5.00
2023-01-10T18:28:16.182Z,5.00
2023-01-10T18:33:20.056Z,5.10
2023-01-10T18:38:22.552Z,5.10
2023-01-10T18:43:25.182Z,5.20
2023-01-10T18:48:28.381Z,5.20
2023-01-10T18:53:31.798Z,5.20
2023-01-10T18:58:37.769Z,5.20
2023-01-10T19:03:41.255Z,5.20
2023-01-10T19:08:45.049Z,5.20
2023-01-10T19:13:49.681Z,5.20
2023-01-10T19:18:57.953Z,5.20
2023-01-10T19:24:05.182Z,5.30
2023-01-10T19:29:07.809Z,5.30
2023-01-10T19:34:12.527Z,5.20
2023-01-10T19:39:15.830Z,5.20
2023-01-10T19:44:18.363Z,5.10
2023-01-10T19:49:21.119Z,5.10
2023-01-10T19:54:27.169Z,5.00
2023-01-10T19:59:32.515Z,4.90
2023-01-10T20:04:36.629Z,4.70
2023-01-10T20:09:39.382Z,4.60
2023-01-10T20:14:41.926Z,4.60
2023-01-10T20:19:44.775Z,4.60
2023-01-10T20:24:47.457Z,4.70
2023-01-10T20:29:50.250Z,4.80
2023-01-10T20:34:52.792Z,4.80
2023-01-10T20:39:55.347Z,4.90
2023-01-10T20:44:58.106Z,4.90
2023-01-10T20:50:00.853Z,4.90
2023-01-10T20:55:03.801Z,4.90
2023-01-10T21:00:06.913Z,4.90
2023-01-10T21:05:09.870Z,4.90
2023-01-10T21:10:12.635Z,4.90
2023-01-10T21:15:15.380Z,5.00
2023-01-10T21:20:18.017Z,5.00
2023-01-10T21:25:20.592Z,5.00
2023-01-10T21:30:23.248Z,4.90
2023-01-10T21:35:26.119Z,4.80
2023-01-10T21:40:29.534Z,4.80
2023-01-10T21:45:34.067Z,4.80
2023-01-10T21:50:36.564Z,4.70
2023-01-10T21:55:39.121Z,4.60
2023-01-10T22:00:41.798Z,4.60
2023-01-10T22:05:44.380Z,4.50
2023-01-10T22:10:46.871Z,4.50
2023-01-10T22:15:49.458Z,4.40
2023-01-10T22:20:54.728Z,4.40
2023-01-10T22:26:05.590Z,4.40
2023-01-10T22:31:08.590Z,4.30
2023-01-10T22:36:18.977Z,4.30
2023-01-10T22:41:27.419Z,4.20
2023-01-10T22:46:30.448Z,4.30
2023-01-10T22:51:35.579Z,4.30
2023-01-10T22:56:38.221Z,4.20
2023-01-10T23:01:40.875Z,4.20
2023-01-10T23:06:43.523Z,4.20
2023-01-10T23:11:46.279Z,4.20
2023-01-10T23:16:48.810Z,4.20
2023-01-10T23:21:51.456Z,4.20
2023-01-10T23:26:53.977Z,4.20
2023-01-10T23:31:56.912Z,4.20
2023-01-10T23:36:59.487Z,4.30
2023-01-10T23:42:02.071Z,4.30
2023-01-10T23:47:04.602Z,4.30
2023-01-10T23:52:07.254Z,4.20
2023-01-10T23:57:10.923Z,4.30
